sensor_id;sensor_type;location;lat;lon;timestamp;P1;durP1;ratioP1;P2;durP2;ratioP2
69203;SDS011;56317;27.658;85.326;2022-09-09T00:00:53;49.35;;;25.42;;
69203;SDS011;56317;27.658;85.326;2022-09-09T00:09:22;47.60;;;23.50;;
69203;SDS011;56317;27.658;85.326;2022-09-09T00:11:57;56.70;;;26.08;;
69203;SDS011;56317;27.658;85.326;2022-09-09T00:14:47;57.05;;;25.80;;
69203;SDS011;56317;27.658;85.326;2022-09-09T00:17:46;61.35;;;26.40;;
69203;SDS011;56317;27.658;85.326;2022-09-09T00:20:51;54.88;;;26.05;;
69203;SDS011;56317;27.658;85.326;2022-09-09T00:28:46;69.50;;;28.88;;
69203;SDS011;56317;27.658;85.326;2022-09-09T00:31:25;57.15;;;27.83;;
69203;SDS011;56317;27.658;85.326;2022-09-09T00:33:55;60.60;;;29.90;;
69203;SDS011;56317;27.658;85.326;2022-09-09T00:36:48;55.95;;;27.38;;
69203;SDS011;56317;27.658;85.326;2022-09-09T00:44:38;52.15;;;29.10;;
69203;SDS011;56317;27.658;85.326;2022-09-09T00:50:08;55.92;;;27.88;;
69203;SDS011;56317;27.658;85.326;2022-09-09T00:55:52;55.38;;;27.67;;
69203;SDS011;56317;27.658;85.326;2022-09-09T00:58:16;57.60;;;30.45;;
69203;SDS011;56317;27.658;85.326;2022-09-09T01:00:49;49.70;;;27.65;;
69203;SDS011;56317;27.658;85.326;2022-09-09T01:19:47;50.92;;;26.80;;
69203;SDS011;56317;27.658;85.326;2022-09-09T01:22:26;49.03;;;27.67;;
69203;SDS011;56317;27.658;85.326;2022-09-09T01:28:01;45.95;;;26.60;;
69203;SDS011;56317;27.658;85.326;2022-09-09T01:30:31;53.05;;;26.38;;
69203;SDS011;56317;27.658;85.326;2022-09-09T01:32:59;44.97;;;25.00;;
69203;SDS011;56317;27.658;85.326;2022-09-09T01:38:13;36.45;;;20.58;;
69203;SDS011;56317;27.658;85.326;2022-09-09T01:40:41;41.70;;;20.23;;
69203;SDS011;56317;27.658;85.326;2022-09-09T01:43:09;32.67;;;20.10;;
69203;SDS011;56317;27.658;85.326;2022-09-09T01:45:37;37.20;;;20.58;;
69203;SDS011;56317;27.658;85.326;2022-09-09T01:48:07;31.93;;;18.33;;
69203;SDS011;56317;27.658;85.326;2022-09-09T01:50:34;32.38;;;19.85;;
69203;SDS011;56317;27.658;85.326;2022-09-09T01:53:01;48.08;;;23.60;;
69203;SDS011;56317;27.658;85.326;2022-09-09T01:55:39;37.95;;;20.45;;
69203;SDS011;56317;27.658;85.326;2022-09-09T02:03:44;34.35;;;20.17;;
69203;SDS011;56317;27.658;85.326;2022-09-09T02:06:37;35.78;;;21.63;;
69203;SDS011;56317;27.658;85.326;2022-09-09T02:09:06;33.30;;;22.40;;
69203;SDS011;56317;27.658;85.326;2022-09-09T02:11:37;36.92;;;21.70;;
69203;SDS011;56317;27.658;85.326;2022-09-09T02:14:12;32.95;;;21.80;;
69203;SDS011;56317;27.658;85.326;2022-09-09T02:16:54;34.20;;;22.23;;
69203;SDS011;56317;27.658;85.326;2022-09-09T02:19:39;29.73;;;18.88;;
69203;SDS011;56317;27.658;85.326;2022-09-09T02:24:37;33.22;;;20.80;;
69203;SDS011;56317;27.658;85.326;2022-09-09T02:27:08;32.60;;;19.67;;
69203;SDS011;56317;27.658;85.326;2022-09-09T02:29:38;32.45;;;19.50;;
69203;SDS011;56317;27.658;85.326;2022-09-09T02:32:09;32.33;;;20.07;;
69203;SDS011;56317;27.658;85.326;2022-09-09T02:34:41;25.48;;;17.13;;
69203;SDS011;56317;27.658;85.326;2022-09-09T02:39:38;29.85;;;17.90;;
69203;SDS011;56317;27.658;85.326;2022-09-09T02:42:05;23.63;;;15.50;;
69203;SDS011;56317;27.658;85.326;2022-09-09T02:44:33;24.75;;;15.90;;
69203;SDS011;56317;27.658;85.326;2022-09-09T02:49:57;28.30;;;17.65;;
69203;SDS011;56317;27.658;85.326;2022-09-09T02:55:14;23.35;;;15.13;;
69203;SDS011;56317;27.658;85.326;2022-09-09T02:57:49;26.40;;;15.73;;
69203;SDS011;56317;27.658;85.326;2022-09-09T03:00:27;26.13;;;14.57;;
69203;SDS011;56317;27.658;85.326;2022-09-09T03:02:55;23.90;;;16.05;;
69203;SDS011;56317;27.658;85.326;2022-09-09T03:05:22;24.92;;;15.93;;
69203;SDS011;56317;27.658;85.326;2022-09-09T03:07:49;26.52;;;16.88;;
69203;SDS011;56317;27.658;85.326;2022-09-09T03:10:16;28.77;;;16.40;;
69203;SDS011;56317;27.658;85.326;2022-09-09T03:12:44;25.52;;;16.73;;
69203;SDS011;56317;27.658;85.326;2022-09-09T03:15:11;25.42;;;16.00;;
69203;SDS011;56317;27.658;85.326;2022-09-09T03:17:39;24.08;;;14.93;;
69203;SDS011;56317;27.658;85.326;2022-09-09T03:20:06;23.35;;;14.40;;
69203;SDS011;56317;27.658;85.326;2022-09-09T03:22:34;22.98;;;15.13;;
69203;SDS011;56317;27.658;85.326;2022-09-09T03:25:01;20.75;;;14.70;;
69203;SDS011;56317;27.658;85.326;2022-09-09T03:27:29;17.42;;;12.98;;
69203;SDS011;56317;27.658;85.326;2022-09-09T03:29:56;20.90;;;12.65;;
69203;SDS011;56317;27.658;85.326;2022-09-09T03:32:23;20.83;;;12.82;;
69203;SDS011;56317;27.658;85.326;2022-09-09T03:34:52;17.38;;;12.20;;
69203;SDS011;56317;27.658;85.326;2022-09-09T03:37:19;20.40;;;13.15;;
69203;SDS011;56317;27.658;85.326;2022-09-09T03:39:48;19.10;;;13.32;;
69203;SDS011;56317;27.658;85.326;2022-09-09T03:42:15;21.83;;;15.65;;
69203;SDS011;56317;27.658;85.326;2022-09-09T03:44:46;22.33;;;14.70;;
69203;SDS011;56317;27.658;85.326;2022-09-09T03:47:17;22.52;;;14.63;;
69203;SDS011;56317;27.658;85.326;2022-09-09T03:49:47;28.95;;;15.60;;
69203;SDS011;56317;27.658;85.326;2022-09-09T03:52:15;23.75;;;15.88;;
69203;SDS011;56317;27.658;85.326;2022-09-09T03:54:42;24.73;;;15.73;;
69203;SDS011;56317;27.658;85.326;2022-09-09T03:57:10;23.88;;;14.60;;
69203;SDS011;56317;27.658;85.326;2022-09-09T03:59:39;20.58;;;14.63;;
69203;SDS011;56317;27.658;85.326;2022-09-09T04:02:06;19.60;;;13.93;;
69203;SDS011;56317;27.658;85.326;2022-09-09T04:04:34;23.83;;;14.80;;
69203;SDS011;56317;27.658;85.326;2022-09-09T04:07:01;22.73;;;14.25;;
69203;SDS011;56317;27.658;85.326;2022-09-09T04:09:31;25.42;;;15.48;;
69203;SDS011;56317;27.658;85.326;2022-09-09T04:11:59;21.85;;;14.95;;
69203;SDS011;56317;27.658;85.326;2022-09-09T04:14:26;22.27;;;14.68;;
69203;SDS011;56317;27.658;85.326;2022-09-09T04:16:54;22.20;;;14.68;;
69203;SDS011;56317;27.658;85.326;2022-09-09T04:19:22;23.55;;;15.32;;
69203;SDS011;56317;27.658;85.326;2022-09-09T04:21:50;19.75;;;15.02;;
69203;SDS011;56317;27.658;85.326;2022-09-09T04:24:17;20.98;;;13.90;;
69203;SDS011;56317;27.658;85.326;2022-09-09T04:26:44;22.60;;;14.63;;
69203;SDS011;56317;27.658;85.326;2022-09-09T04:29:12;24.88;;;13.27;;
69203;SDS011;56317;27.658;85.326;2022-09-09T04:31:39;17.73;;;12.43;;
69203;SDS011;56317;27.658;85.326;2022-09-09T04:34:08;22.30;;;14.57;;
69203;SDS011;56317;27.658;85.326;2022-09-09T04:36:35;21.92;;;14.35;;
69203;SDS011;56317;27.658;85.326;2022-09-09T04:39:06;25.25;;;15.38;;
69203;SDS011;56317;27.658;85.326;2022-09-09T04:41:33;28.30;;;15.85;;
69203;SDS011;56317;27.658;85.326;2022-09-09T04:44:01;22.00;;;15.68;;
69203;SDS011;56317;27.658;85.326;2022-09-09T04:46:29;23.48;;;15.40;;
69203;SDS011;56317;27.658;85.326;2022-09-09T04:48:56;26.17;;;15.55;;
69203;SDS011;56317;27.658;85.326;2022-09-09T04:51:23;25.60;;;16.23;;
69203;SDS011;56317;27.658;85.326;2022-09-09T04:53:50;25.83;;;16.73;;
69203;SDS011;56317;27.658;85.326;2022-09-09T04:56:19;25.65;;;16.27;;
69203;SDS011;56317;27.658;85.326;2022-09-09T04:58:46;19.20;;;13.30;;
69203;SDS011;56317;27.658;85.326;2022-09-09T05:01:20;17.55;;;11.50;;
69203;SDS011;56317;27.658;85.326;2022-09-09T05:03:49;16.15;;;11.88;;
69203;SDS011;56317;27.658;85.326;2022-09-09T05:06:19;20.17;;;12.95;;
69203;SDS011;56317;27.658;85.326;2022-09-09T05:08:47;17.67;;;11.93;;
69203;SDS011;56317;27.658;85.326;2022-09-09T05:13:42;27.13;;;12.68;;
69203;SDS011;56317;27.658;85.326;2022-09-09T05:16:10;20.48;;;10.52;;
69203;SDS011;56317;27.658;85.326;2022-09-09T05:18:38;17.48;;;11.68;;
69203;SDS011;56317;27.658;85.326;2022-09-09T05:21:07;14.80;;;8.80;;
69203;SDS011;56317;27.658;85.326;2022-09-09T05:23:35;14.05;;;9.15;;
69203;SDS011;56317;27.658;85.326;2022-09-09T05:26:03;20.02;;;9.65;;
69203;SDS011;56317;27.658;85.326;2022-09-09T05:28:31;23.35;;;10.57;;
69203;SDS011;56317;27.658;85.326;2022-09-09T05:31:04;18.03;;;10.20;;
69203;SDS011;56317;27.658;85.326;2022-09-09T05:33:39;20.05;;;9.90;;
69203;SDS011;56317;27.658;85.326;2022-09-09T05:36:09;15.20;;;9.30;;
69203;SDS011;56317;27.658;85.326;2022-09-09T05:38:41;17.55;;;8.07;;
69203;SDS011;56317;27.658;85.326;2022-09-09T05:41:09;15.63;;;9.15;;
69203;SDS011;56317;27.658;85.326;2022-09-09T05:43:37;13.90;;;9.55;;
69203;SDS011;56317;27.658;85.326;2022-09-09T05:46:09;17.17;;;9.93;;
69203;SDS011;56317;27.658;85.326;2022-09-09T05:48:39;17.75;;;7.78;;
69203;SDS011;56317;27.658;85.326;2022-09-09T05:51:09;14.43;;;6.43;;
69203;SDS011;56317;27.658;85.326;2022-09-09T05:53:43;12.98;;;5.68;;
69203;SDS011;56317;27.658;85.326;2022-09-09T05:56:12;7.20;;;3.38;;
69203;SDS011;56317;27.658;85.326;2022-09-09T05:58:45;8.98;;;3.20;;
69203;SDS011;56317;27.658;85.326;2022-09-09T06:01:13;6.88;;;3.72;;
69203;SDS011;56317;27.658;85.326;2022-09-09T06:03:54;8.82;;;3.92;;
69203;SDS011;56317;27.658;85.326;2022-09-09T06:06:31;8.38;;;3.60;;
69203;SDS011;56317;27.658;85.326;2022-09-09T06:09:05;9.65;;;3.80;;
69203;SDS011;56317;27.658;85.326;2022-09-09T06:11:36;20.23;;;4.32;;
69203;SDS011;56317;27.658;85.326;2022-09-09T06:14:05;11.45;;;3.95;;
69203;SDS011;56317;27.658;85.326;2022-09-09T06:16:33;9.65;;;4.20;;
69203;SDS011;56317;27.658;85.326;2022-09-09T06:19:03;10.20;;;4.40;;
69203;SDS011;56317;27.658;85.326;2022-09-09T06:21:31;9.25;;;4.90;;
69203;SDS011;56317;27.658;85.326;2022-09-09T06:24:02;12.45;;;5.20;;
69203;SDS011;56317;27.658;85.326;2022-09-09T06:26:31;7.05;;;3.72;;
69203;SDS011;56317;27.658;85.326;2022-09-09T06:29:00;11.65;;;4.20;;
69203;SDS011;56317;27.658;85.326;2022-09-09T06:31:29;11.73;;;3.97;;
69203;SDS011;56317;27.658;85.326;2022-09-09T06:33:59;6.10;;;3.38;;
69203;SDS011;56317;27.658;85.326;2022-09-09T06:36:27;9.63;;;5.20;;
69203;SDS011;56317;27.658;85.326;2022-09-09T06:38:56;9.55;;;4.93;;
69203;SDS011;56317;27.658;85.326;2022-09-09T06:41:26;9.10;;;5.90;;
69203;SDS011;56317;27.658;85.326;2022-09-09T06:43:55;10.27;;;4.03;;
69203;SDS011;56317;27.658;85.326;2022-09-09T06:46:23;9.68;;;5.28;;
69203;SDS011;56317;27.658;85.326;2022-09-09T06:48:55;8.52;;;4.72;;
69203;SDS011;56317;27.658;85.326;2022-09-09T06:51:25;15.05;;;6.60;;
69203;SDS011;56317;27.658;85.326;2022-09-09T06:53:54;9.25;;;6.20;;
69203;SDS011;56317;27.658;85.326;2022-09-09T06:56:27;16.60;;;10.55;;
69203;SDS011;56317;27.658;85.326;2022-09-09T06:59:05;10.75;;;6.38;;
69203;SDS011;56317;27.658;85.326;2022-09-09T07:01:35;8.98;;;4.95;;
69203;SDS011;56317;27.658;85.326;2022-09-09T07:04:06;8.57;;;5.25;;
69203;SDS011;56317;27.658;85.326;2022-09-09T07:06:35;8.63;;;4.40;;
69203;SDS011;56317;27.658;85.326;2022-09-09T07:09:09;7.97;;;4.15;;
69203;SDS011;56317;27.658;85.326;2022-09-09T07:11:41;8.25;;;3.97;;
69203;SDS011;56317;27.658;85.326;2022-09-09T07:14:13;6.43;;;3.83;;
69203;SDS011;56317;27.658;85.326;2022-09-09T07:16:41;11.55;;;4.07;;
69203;SDS011;56317;27.658;85.326;2022-09-09T07:19:10;7.45;;;3.58;;
69203;SDS011;56317;27.658;85.326;2022-09-09T07:21:38;7.85;;;4.72;;
69203;SDS011;56317;27.658;85.326;2022-09-09T07:24:08;11.68;;;5.60;;
69203;SDS011;56317;27.658;85.326;2022-09-09T07:26:37;11.52;;;5.97;;
69203;SDS011;56317;27.658;85.326;2022-09-09T07:29:05;9.25;;;6.05;;
69203;SDS011;56317;27.658;85.326;2022-09-09T07:31:33;10.52;;;5.32;;
69203;SDS011;56317;27.658;85.326;2022-09-09T07:34:03;9.77;;;5.30;;
69203;SDS011;56317;27.658;85.326;2022-09-09T07:36:31;8.90;;;4.95;;
69203;SDS011;56317;27.658;85.326;2022-09-09T07:39:02;11.23;;;4.75;;
69203;SDS011;56317;27.658;85.326;2022-09-09T07:44:07;11.77;;;5.53;;
69203;SDS011;56317;27.658;85.326;2022-09-09T07:46:36;12.15;;;4.75;;
69203;SDS011;56317;27.658;85.326;2022-09-09T07:49:07;8.10;;;3.92;;
69203;SDS011;56317;27.658;85.326;2022-09-09T07:51:36;13.48;;;4.40;;
69203;SDS011;56317;27.658;85.326;2022-09-09T07:54:07;6.55;;;3.53;;
69203;SDS011;56317;27.658;85.326;2022-09-09T07:56:37;9.00;;;3.80;;
69203;SDS011;56317;27.658;85.326;2022-09-09T07:59:05;15.15;;;3.03;;
69203;SDS011;56317;27.658;85.326;2022-09-09T08:01:40;7.30;;;2.33;;
69203;SDS011;56317;27.658;85.326;2022-09-09T08:04:18;15.93;;;3.63;;
69203;SDS011;56317;27.658;85.326;2022-09-09T08:06:47;10.93;;;3.70;;
69203;SDS011;56317;27.658;85.326;2022-09-09T08:09:18;8.43;;;3.80;;
69203;SDS011;56317;27.658;85.326;2022-09-09T08:11:46;7.85;;;3.50;;
69203;SDS011;56317;27.658;85.326;2022-09-09T08:14:14;7.43;;;3.65;;
69203;SDS011;56317;27.658;85.326;2022-09-09T08:16:43;10.68;;;3.72;;
69203;SDS011;56317;27.658;85.326;2022-09-09T08:19:12;9.45;;;4.32;;
69203;SDS011;56317;27.658;85.326;2022-09-09T08:21:43;8.73;;;4.20;;
69203;SDS011;56317;27.658;85.326;2022-09-09T08:24:11;14.88;;;4.30;;
69203;SDS011;56317;27.658;85.326;2022-09-09T08:29:13;7.68;;;3.83;;
69203;SDS011;56317;27.658;85.326;2022-09-09T08:31:53;7.60;;;4.00;;
69203;SDS011;56317;27.658;85.326;2022-09-09T08:34:24;7.07;;;4.43;;
69203;SDS011;56317;27.658;85.326;2022-09-09T08:36:53;11.33;;;4.47;;
69203;SDS011;56317;27.658;85.326;2022-09-09T08:39:21;9.82;;;4.00;;
69203;SDS011;56317;27.658;85.326;2022-09-09T08:50:53;6.32;;;3.60;;
69203;SDS011;56317;27.658;85.326;2022-09-09T08:53:27;5.85;;;3.17;;
69203;SDS011;56317;27.658;85.326;2022-09-09T08:56:03;6.82;;;3.33;;
69203;SDS011;56317;27.658;85.326;2022-09-09T08:58:40;5.70;;;2.80;;
69203;SDS011;56317;27.658;85.326;2022-09-09T09:12:38;4.93;;;2.58;;
69203;SDS011;56317;27.658;85.326;2022-09-09T09:15:31;10.25;;;2.97;;
69203;SDS011;56317;27.658;85.326;2022-09-09T09:18:04;5.75;;;2.75;;
69203;SDS011;56317;27.658;85.326;2022-09-09T09:20:40;5.95;;;2.30;;
69203;SDS011;56317;27.658;85.326;2022-09-09T09:23:34;3.17;;;2.25;;
69203;SDS011;56317;27.658;85.326;2022-09-09T09:26:09;5.97;;;2.17;;
69203;SDS011;56317;27.658;85.326;2022-09-09T09:28:37;6.22;;;3.13;;
69203;SDS011;56317;27.658;85.326;2022-09-09T09:31:08;5.70;;;2.80;;
69203;SDS011;56317;27.658;85.326;2022-09-09T09:33:50;6.90;;;3.42;;
69203;SDS011;56317;27.658;85.326;2022-09-09T09:36:19;4.00;;;2.28;;
69203;SDS011;56317;27.658;85.326;2022-09-09T09:38:57;5.07;;;2.30;;
69203;SDS011;56317;27.658;85.326;2022-09-09T09:41:41;4.63;;;2.22;;
69203;SDS011;56317;27.658;85.326;2022-09-09T09:47:12;5.13;;;2.30;;
69203;SDS011;56317;27.658;85.326;2022-09-09T09:49:57;4.82;;;2.05;;
69203;SDS011;56317;27.658;85.326;2022-09-09T09:52:31;5.28;;;2.10;;
69203;SDS011;56317;27.658;85.326;2022-09-09T09:55:02;2.80;;;1.60;;
69203;SDS011;56317;27.658;85.326;2022-09-09T09:57:33;3.88;;;2.15;;
69203;SDS011;56317;27.658;85.326;2022-09-09T10:00:03;2.35;;;1.40;;
69203;SDS011;56317;27.658;85.326;2022-09-09T10:02:46;2.47;;;1.50;;
69203;SDS011;56317;27.658;85.326;2022-09-09T10:05:26;4.07;;;1.58;;
69203;SDS011;56317;27.658;85.326;2022-09-09T10:10:50;5.15;;;2.10;;
69203;SDS011;56317;27.658;85.326;2022-09-09T10:16:33;3.85;;;2.08;;
69203;SDS011;56317;27.658;85.326;2022-09-09T10:19:33;6.88;;;2.28;;
69203;SDS011;56317;27.658;85.326;2022-09-09T10:31:01;8.20;;;2.10;;
69203;SDS011;56317;27.658;85.326;2022-09-09T10:36:47;5.00;;;1.55;;
69203;SDS011;56317;27.658;85.326;2022-09-09T10:41:56;6.53;;;2.30;;
69203;SDS011;56317;27.658;85.326;2022-09-09T10:45:14;3.40;;;1.80;;
69203;SDS011;56317;27.658;85.326;2022-09-09T10:47:43;6.55;;;2.20;;
69203;SDS011;56317;27.658;85.326;2022-09-09T10:50:24;5.22;;;2.20;;
69203;SDS011;56317;27.658;85.326;2022-09-09T10:55:48;6.70;;;2.30;;
69203;SDS011;56317;27.658;85.326;2022-09-09T11:04:09;7.22;;;2.72;;
69203;SDS011;56317;27.658;85.326;2022-09-09T11:06:58;7.22;;;2.65;;
69203;SDS011;56317;27.658;85.326;2022-09-09T11:09:32;5.43;;;2.40;;
69203;SDS011;56317;27.658;85.326;2022-09-09T11:12:07;8.75;;;2.90;;
69203;SDS011;56317;27.658;85.326;2022-09-09T11:17:12;8.27;;;3.72;;
69203;SDS011;56317;27.658;85.326;2022-09-09T11:19:46;6.43;;;3.03;;
69203;SDS011;56317;27.658;85.326;2022-09-09T11:27:37;7.72;;;3.80;;
69203;SDS011;56317;27.658;85.326;2022-09-09T11:30:28;7.88;;;3.25;;
69203;SDS011;56317;27.658;85.326;2022-09-09T11:36:06;5.82;;;3.15;;
69203;SDS011;56317;27.658;85.326;2022-09-09T11:39:02;15.82;;;6.10;;
69203;SDS011;56317;27.658;85.326;2022-09-09T11:41:52;11.38;;;4.35;;
69203;SDS011;56317;27.658;85.326;2022-09-09T11:44:24;13.27;;;4.18;;
69203;SDS011;56317;27.658;85.326;2022-09-09T11:46:55;7.80;;;4.00;;
69203;SDS011;56317;27.658;85.326;2022-09-09T11:49:29;10.35;;;4.63;;
69203;SDS011;56317;27.658;85.326;2022-09-09T11:52:20;12.55;;;4.85;;
69203;SDS011;56317;27.658;85.326;2022-09-09T11:54:51;28.15;;;11.40;;
69203;SDS011;56317;27.658;85.326;2022-09-09T11:57:25;8.23;;;4.13;;
69203;SDS011;56317;27.658;85.326;2022-09-09T12:00:01;9.35;;;4.75;;
69203;SDS011;56317;27.658;85.326;2022-09-09T12:02:29;17.33;;;4.72;;
69203;SDS011;56317;27.658;85.326;2022-09-09T12:10:32;8.25;;;4.60;;
69203;SDS011;56317;27.658;85.326;2022-09-09T12:13:34;7.35;;;4.32;;
69203;SDS011;56317;27.658;85.326;2022-09-09T12:15:57;7.68;;;4.28;;
69203;SDS011;56317;27.658;85.326;2022-09-09T12:18:35;11.18;;;5.28;;
69203;SDS011;56317;27.658;85.326;2022-09-09T12:24:03;9.85;;;5.40;;
69203;SDS011;56317;27.658;85.326;2022-09-09T12:29:23;8.82;;;4.60;;
69203;SDS011;56317;27.658;85.326;2022-09-09T12:32:11;8.20;;;4.57;;
69203;SDS011;56317;27.658;85.326;2022-09-09T12:34:56;9.85;;;4.40;;
69203;SDS011;56317;27.658;85.326;2022-09-09T12:37:35;9.52;;;5.07;;
69203;SDS011;56317;27.658;85.326;2022-09-09T12:40:25;8.27;;;4.32;;
69203;SDS011;56317;27.658;85.326;2022-09-09T12:42:57;9.45;;;4.82;;
69203;SDS011;56317;27.658;85.326;2022-09-09T12:45:28;8.10;;;4.60;;
69203;SDS011;56317;27.658;85.326;2022-09-09T12:47:58;10.90;;;4.68;;
69203;SDS011;56317;27.658;85.326;2022-09-09T12:50:32;7.20;;;4.57;;
69203;SDS011;56317;27.658;85.326;2022-09-09T12:53:22;8.45;;;4.72;;
69203;SDS011;56317;27.658;85.326;2022-09-09T12:55:58;11.13;;;5.25;;
69203;SDS011;56317;27.658;85.326;2022-09-09T12:58:36;12.57;;;5.20;;
69203;SDS011;56317;27.658;85.326;2022-09-09T13:01:05;12.10;;;6.65;;
69203;SDS011;56317;27.658;85.326;2022-09-09T13:03:44;15.80;;;6.63;;
69203;SDS011;56317;27.658;85.326;2022-09-09T13:06:22;16.30;;;6.28;;
69203;SDS011;56317;27.658;85.326;2022-09-09T13:08:55;16.45;;;6.32;;
69203;SDS011;56317;27.658;85.326;2022-09-09T13:11:46;12.45;;;6.30;;
69203;SDS011;56317;27.658;85.326;2022-09-09T13:14:31;13.07;;;6.55;;
69203;SDS011;56317;27.658;85.326;2022-09-09T13:17:04;13.20;;;6.93;;
69203;SDS011;56317;27.658;85.326;2022-09-09T13:19:34;18.40;;;8.45;;
69203;SDS011;56317;27.658;85.326;2022-09-09T13:22:14;15.35;;;7.68;;
69203;SDS011;56317;27.658;85.326;2022-09-09T13:25:06;13.45;;;7.85;;
69203;SDS011;56317;27.658;85.326;2022-09-09T13:27:38;16.60;;;8.30;;
69203;SDS011;56317;27.658;85.326;2022-09-09T13:30:26;20.63;;;9.82;;
69203;SDS011;56317;27.658;85.326;2022-09-09T13:35:47;22.80;;;8.98;;
69203;SDS011;56317;27.658;85.326;2022-09-09T13:38:24;16.80;;;8.23;;
69203;SDS011;56317;27.658;85.326;2022-09-09T13:40:57;13.68;;;8.80;;
69203;SDS011;56317;27.658;85.326;2022-09-09T13:43:45;16.10;;;8.63;;
69203;SDS011;56317;27.658;85.326;2022-09-09T13:51:36;14.68;;;9.75;;
69203;SDS011;56317;27.658;85.326;2022-09-09T13:54:09;20.02;;;10.48;;
69203;SDS011;56317;27.658;85.326;2022-09-09T13:56:37;16.25;;;10.73;;
69203;SDS011;56317;27.658;85.326;2022-09-09T13:59:06;20.10;;;10.77;;
69203;SDS011;56317;27.658;85.326;2022-09-09T14:01:45;18.27;;;11.13;;
69203;SDS011;56317;27.658;85.326;2022-09-09T14:04:14;17.67;;;10.95;;
69203;SDS011;56317;27.658;85.326;2022-09-09T14:06:42;16.88;;;10.82;;
69203;SDS011;56317;27.658;85.326;2022-09-09T14:09:18;15.48;;;10.40;;
69203;SDS011;56317;27.658;85.326;2022-09-09T14:11:45;17.73;;;11.45;;
69203;SDS011;56317;27.658;85.326;2022-09-09T14:14:13;21.88;;;11.43;;
69203;SDS011;56317;27.658;85.326;2022-09-09T14:16:40;27.15;;;11.70;;
69203;SDS011;56317;27.658;85.326;2022-09-09T14:19:08;18.10;;;11.60;;
69203;SDS011;56317;27.658;85.326;2022-09-09T14:21:35;23.02;;;12.93;;
69203;SDS011;56317;27.658;85.326;2022-09-09T14:24:02;20.08;;;13.18;;
69203;SDS011;56317;27.658;85.326;2022-09-09T14:26:30;26.38;;;12.65;;
69203;SDS011;56317;27.658;85.326;2022-09-09T14:28:57;24.77;;;12.35;;
69203;SDS011;56317;27.658;85.326;2022-09-09T14:31:26;19.83;;;12.85;;
69203;SDS011;56317;27.658;85.326;2022-09-09T14:33:53;19.25;;;11.48;;
69203;SDS011;56317;27.658;85.326;2022-09-09T14:36:20;23.30;;;11.93;;
69203;SDS011;56317;27.658;85.326;2022-09-09T14:38:48;24.23;;;12.50;;
69203;SDS011;56317;27.658;85.326;2022-09-09T14:41:16;15.00;;;10.80;;
69203;SDS011;56317;27.658;85.326;2022-09-09T14:43:45;20.10;;;11.35;;
69203;SDS011;56317;27.658;85.326;2022-09-09T14:46:14;20.45;;;12.27;;
69203;SDS011;56317;27.658;85.326;2022-09-09T14:48:42;18.73;;;11.02;;
69203;SDS011;56317;27.658;85.326;2022-09-09T14:51:12;14.77;;;10.07;;
69203;SDS011;56317;27.658;85.326;2022-09-09T14:53:47;19.25;;;11.57;;
69203;SDS011;56317;27.658;85.326;2022-09-09T14:56:23;18.70;;;11.73;;
69203;SDS011;56317;27.658;85.326;2022-09-09T14:58:53;17.35;;;12.20;;
69203;SDS011;56317;27.658;85.326;2022-09-09T15:01:24;22.38;;;12.80;;
69203;SDS011;56317;27.658;85.326;2022-09-09T15:03:56;21.67;;;14.43;;
69203;SDS011;56317;27.658;85.326;2022-09-09T15:06:25;20.55;;;13.35;;
69203;SDS011;56317;27.658;85.326;2022-09-09T15:08:54;15.57;;;10.60;;
69203;SDS011;56317;27.658;85.326;2022-09-09T15:11:26;16.60;;;12.07;;
69203;SDS011;56317;27.658;85.326;2022-09-09T15:13:56;18.30;;;11.98;;
69203;SDS011;56317;27.658;85.326;2022-09-09T15:16:24;18.17;;;11.85;;
69203;SDS011;56317;27.658;85.326;2022-09-09T15:18:54;15.45;;;10.85;;
69203;SDS011;56317;27.658;85.326;2022-09-09T15:21:24;15.05;;;11.57;;
69203;SDS011;56317;27.658;85.326;2022-09-09T15:23:52;20.50;;;12.52;;
69203;SDS011;56317;27.658;85.326;2022-09-09T15:26:20;20.60;;;13.10;;
69203;SDS011;56317;27.658;85.326;2022-09-09T15:28:48;18.42;;;12.75;;
69203;SDS011;56317;27.658;85.326;2022-09-09T15:31:23;18.58;;;12.70;;
69203;SDS011;56317;27.658;85.326;2022-09-09T15:33:54;18.00;;;12.18;;
69203;SDS011;56317;27.658;85.326;2022-09-09T15:36:29;17.42;;;11.90;;
69203;SDS011;56317;27.658;85.326;2022-09-09T15:39:02;17.88;;;11.40;;
69203;SDS011;56317;27.658;85.326;2022-09-09T15:41:30;19.45;;;13.05;;
69203;SDS011;56317;27.658;85.326;2022-09-09T15:43:58;16.25;;;11.88;;
69203;SDS011;56317;27.658;85.326;2022-09-09T15:49:24;15.98;;;11.48;;
69203;SDS011;56317;27.658;85.326;2022-09-09T15:51:55;16.38;;;11.45;;
69203;SDS011;56317;27.658;85.326;2022-09-09T15:54:25;18.42;;;11.55;;
69203;SDS011;56317;27.658;85.326;2022-09-09T15:56:54;16.55;;;11.55;;
69203;SDS011;56317;27.658;85.326;2022-09-09T15:59:23;17.98;;;11.82;;
69203;SDS011;56317;27.658;85.326;2022-09-09T16:01:51;16.27;;;11.82;;
69203;SDS011;56317;27.658;85.326;2022-09-09T16:04:18;17.70;;;11.40;;
69203;SDS011;56317;27.658;85.326;2022-09-09T16:06:49;18.23;;;12.43;;
69203;SDS011;56317;27.658;85.326;2022-09-09T16:09:27;17.13;;;12.45;;
69203;SDS011;56317;27.658;85.326;2022-09-09T16:11:55;18.75;;;12.48;;
69203;SDS011;56317;27.658;85.326;2022-09-09T16:14:24;17.67;;;12.27;;
69203;SDS011;56317;27.658;85.326;2022-09-09T16:16:51;20.10;;;12.77;;
69203;SDS011;56317;27.658;85.326;2022-09-09T16:19:18;19.90;;;13.93;;
69203;SDS011;56317;27.658;85.326;2022-09-09T16:21:47;19.42;;;12.80;;
69203;SDS011;56317;27.658;85.326;2022-09-09T16:24:16;20.38;;;12.60;;
69203;SDS011;56317;27.658;85.326;2022-09-09T16:26:46;19.40;;;12.95;;
69203;SDS011;56317;27.658;85.326;2022-09-09T16:29:15;20.45;;;13.77;;
69203;SDS011;56317;27.658;85.326;2022-09-09T16:31:44;21.02;;;13.88;;
69203;SDS011;56317;27.658;85.326;2022-09-09T16:34:12;20.85;;;14.07;;
69203;SDS011;56317;27.658;85.326;2022-09-09T16:36:41;22.38;;;13.43;;
69203;SDS011;56317;27.658;85.326;2022-09-09T16:39:16;20.77;;;13.50;;
69203;SDS011;56317;27.658;85.326;2022-09-09T16:41:45;18.35;;;13.00;;
69203;SDS011;56317;27.658;85.326;2022-09-09T16:44:14;15.88;;;11.57;;
69203;SDS011;56317;27.658;85.326;2022-09-09T16:46:44;16.05;;;11.55;;
69203;SDS011;56317;27.658;85.326;2022-09-09T16:49:14;15.43;;;11.27;;
69203;SDS011;56317;27.658;85.326;2022-09-09T16:51:50;14.70;;;11.05;;
69203;SDS011;56317;27.658;85.326;2022-09-09T16:54:20;20.85;;;12.25;;
69203;SDS011;56317;27.658;85.326;2022-09-09T16:56:48;17.10;;;11.60;;
69203;SDS011;56317;27.658;85.326;2022-09-09T16:59:17;16.65;;;12.13;;
69203;SDS011;56317;27.658;85.326;2022-09-09T17:01:46;16.95;;;12.32;;
69203;SDS011;56317;27.658;85.326;2022-09-09T17:04:16;17.23;;;11.32;;
69203;SDS011;56317;27.658;85.326;2022-09-09T17:06:54;20.77;;;12.30;;
69203;SDS011;56317;27.658;85.326;2022-09-09T17:09:22;17.38;;;12.18;;
69203;SDS011;56317;27.658;85.326;2022-09-09T17:14:21;18.63;;;11.90;;
69203;SDS011;56317;27.658;85.326;2022-09-09T17:16:49;17.55;;;11.60;;
69203;SDS011;56317;27.658;85.326;2022-09-09T17:19:16;17.65;;;12.45;;
69203;SDS011;56317;27.658;85.326;2022-09-09T17:21:44;17.40;;;12.57;;
69203;SDS011;56317;27.658;85.326;2022-09-09T17:24:12;20.75;;;13.55;;